Ana Sayfa
METAR-TAF:

METAR-TAF

Havaalanları :

Monclova, Meksika

Enlem: 26-53N, Boylam: 101-25W, yükseklik: 615 m

Güncel hava durumu gözlemi

Rapor saat 23:40 UTC de 7 saat ve 47 dakika önce yapıldı.
Rüzgar batı/güneybatıdan 10 kt
Sıcaklık 24°C
Nem 31%
Basınç 1014 hPa
Görüş mesafesi: 12.9 km
10000 ft yükseklikte az bulutlu

METAR: MMMV 132340Z 24010KT 8SM FEW100 24/06 A2993 RMK 8/010 HZY

Saat: 01:27 (07:27 UTC)

Tahmin

Rapor saat 04:25 UTC de 3 saat ve 2 dakika önce yapıldı.
Ayın 14'si saat 06 UTC'den ayın 15'si saat 06 UTC'ye kadar geçerli Tahmin
Rüzgar kuzeydan kt
Görüş mesafesi: 10 km
Açık gökyüzü
Ayın 14'si saat 1700 UTC'den
Rüzgar güneydoğudan 10 kt
Görüş mesafesi: 10 km
Açık gökyüzü
Ayın 15'si saat 0200 UTC'den
Rüzgar güneydoğudan 5 kt
Görüş mesafesi: 10 km
Açık gökyüzü

TAF: MMMV 140425Z 1406/1506 00000KT P6SM SKC FM141700 13010KT P6SM SKC FM150200 13005KT P6SM SKC

4.000'den fazla havaalanı için hava durumu gözlemleri ve tahminleri (METAR ve TAF raporları).

Kullanılabilir istasyonlar harita üzerinde sarı ve kırmızı noktalarla gösterilir.

İstasyonun adını görmek için fareyi noktanın üzerinde gezdirin.

Sonrasında hava gözlem ve tahminlerini görmek için tıklayın.

Haritayı değiştirmek için: yaklaştırmak için siyah artı işaretli yeşil düğmeye ve uzaklaştırmak için de eksi işaretli düğmeye hızla tıklayın; bitişik haritalar için yeşil okları kullanın.


METAR-TAF: